createdAt,value
2019-03-05T00:01:34.185Z,95351.21
2019-03-05T00:04:22.130Z,95353.24
2019-03-05T00:07:10.006Z,95367.89
2019-03-05T00:09:58.165Z,95366.14
2019-03-05T00:12:45.937Z,95358.19
2019-03-05T00:15:34.002Z,95382.77
2019-03-05T00:18:21.968Z,95378.25
2019-03-05T00:21:10.138Z,95394.89
2019-03-05T00:24:26.338Z,95363.84
2019-03-05T00:27:14.476Z,95381.06
2019-03-05T00:30:27.596Z,95388.41
2019-03-05T00:33:35.261Z,95386.33
2019-03-05T00:36:28.038Z,95398.44
2019-03-05T00:40:21.746Z,95402.23
2019-03-05T00:43:40.057Z,95418.55
2019-03-05T00:46:52.573Z,95397.65
2019-03-05T00:49:53.607Z,95373.70
2019-03-05T00:52:55.954Z,95381.77
2019-03-05T00:56:31.267Z,95378.48
2019-03-05T00:59:33.983Z,95369.56
2019-03-05T01:02:35.570Z,95372.61
2019-03-05T01:05:45.587Z,95371.51
2019-03-05T01:08:34.176Z,95362.70
2019-03-05T01:11:22.913Z,95369.67
2019-03-05T01:14:11.117Z,95363.69
2019-03-05T01:16:59.300Z,95362.94
2019-03-05T01:19:47.516Z,95353.55
2019-03-05T01:22:35.574Z,95352.94
2019-03-05T01:25:28.972Z,95348.55
2019-03-05T01:28:17.184Z,95344.45
2019-03-05T01:31:39.824Z,95359.91
2019-03-05T01:34:45.437Z,95358.38
2019-03-05T01:37:33.324Z,95352.33
2019-03-05T01:40:40.779Z,95357.82
2019-03-05T01:43:29.021Z,95345.47
2019-03-05T01:46:16.931Z,95341.99
2019-03-05T01:49:05.532Z,95330.81
2019-03-05T01:51:53.465Z,95329.84
2019-03-05T01:54:41.300Z,95329.58
2019-03-05T01:57:29.377Z,95333.12
2019-03-05T02:00:18.474Z,95336.55
2019-03-05T02:03:06.367Z,95333.02
2019-03-05T02:05:54.324Z,95330.41
2019-03-05T02:08:42.130Z,95330.41
2019-03-05T02:11:30.665Z,95335.42
2019-03-05T02:14:18.606Z,95329.99
2019-03-05T02:17:06.601Z,95325.03
2019-03-05T02:19:54.580Z,95330.56
2019-03-05T02:22:46.249Z,95325.67
2019-03-05T02:26:08.028Z,95319.89
2019-03-05T02:29:32.010Z,95317.60
2019-03-05T02:32:51.070Z,95305.98
2019-03-05T02:36:03.814Z,95314.69
2019-03-05T02:39:12.230Z,95313.44
2019-03-05T02:42:20.279Z,95313.39
2019-03-05T02:45:42.603Z,95303.76
2019-03-05T02:49:21.101Z,95313.95
2019-03-05T02:52:28.699Z,95311.27
2019-03-05T02:55:42.505Z,95316.88
2019-03-05T02:58:28.956Z,95331.54
2019-03-05T03:01:42.066Z,95340.84
2019-03-05T03:04:33.626Z,95333.86
2019-03-05T03:07:21.528Z,95341.67
2019-03-05T03:10:15.124Z,95339.99
2019-03-05T03:13:03.023Z,95339.50
2019-03-05T03:15:50.921Z,95338.77
2019-03-05T03:18:39.266Z,95333.62
2019-03-05T03:21:27.432Z,95333.12
2019-03-05T03:24:15.702Z,95335.80
2019-03-05T03:27:03.851Z,95336.64
2019-03-05T03:29:51.977Z,95342.57
2019-03-05T03:32:40.270Z,95341.95
2019-03-05T03:35:28.067Z,95351.51
2019-03-05T03:38:16.038Z,95357.33
2019-03-05T03:41:04.514Z,95367.64
2019-03-05T03:43:52.382Z,95362.91
2019-03-05T03:46:40.286Z,95376.20
2019-03-05T03:49:28.426Z,95371.64
2019-03-05T03:52:16.590Z,95377.61
2019-03-05T03:55:05.216Z,95364.27
2019-03-05T03:57:53.921Z,95381.43
2019-03-05T04:00:41.847Z,95386.06
2019-03-05T04:03:29.920Z,95382.19
2019-03-05T04:06:17.825Z,95384.88
2019-03-05T04:09:09.773Z,95377.31
2019-03-05T04:11:57.700Z,95366.45
2019-03-05T04:14:46.149Z,95366.95
2019-03-05T04:17:34.350Z,95365.33
2019-03-05T04:20:28.339Z,95366.23
2019-03-05T04:23:16.493Z,95369.55
2019-03-05T04:26:04.576Z,95376.50
2019-03-05T04:28:52.798Z,95374.57
2019-03-05T04:31:41.066Z,95365.52
2019-03-05T04:34:29.208Z,95349.06
2019-03-05T04:37:17.241Z,95363.77
2019-03-05T04:40:06.005Z,95358.02
2019-03-05T04:42:54.145Z,95354.12
2019-03-05T04:46:13.338Z,95351.05
2019-03-05T04:49:32.178Z,95357.77
2019-03-05T04:52:23.307Z,95353.89
2019-03-05T04:55:11.341Z,95349.43
2019-03-05T04:57:59.710Z,95353.80
2019-03-05T05:00:47.723Z,95355.83
2019-03-05T05:03:35.968Z,95363.36
2019-03-05T05:06:24.094Z,95358.48
2019-03-05T05:09:13.216Z,95359.95
2019-03-05T05:12:01.520Z,95354.15
2019-03-05T05:14:50.093Z,95348.09
2019-03-05T05:17:39.543Z,95350.80
2019-03-05T05:20:27.761Z,95365.42
2019-03-05T05:23:16.422Z,95356.12
2019-03-05T05:26:04.479Z,95364.67
2019-03-05T05:28:52.899Z,95353.43
2019-03-05T05:31:42.310Z,95363.77
2019-03-05T05:34:30.274Z,95363.86
2019-03-05T05:37:18.137Z,95378.22
2019-03-05T05:40:25.329Z,95375.13
2019-03-05T05:43:27.627Z,95371.10
2019-03-05T05:46:15.600Z,95369.83
2019-03-05T05:49:03.800Z,95380.81
2019-03-05T05:51:52.013Z,95385.09
2019-03-05T05:54:40.433Z,95386.16
2019-03-05T05:57:28.745Z,95380.22
2019-03-05T06:00:17.154Z,95361.42
2019-03-05T06:03:05.442Z,95385.06
2019-03-05T06:05:53.608Z,95371.88
2019-03-05T06:08:41.458Z,95376.50
2019-03-05T06:11:29.596Z,95378.59
2019-03-05T06:14:17.304Z,95378.50
2019-03-05T06:17:05.416Z,95374.85
2019-03-05T06:19:53.263Z,95370.23
2019-03-05T06:22:41.198Z,95384.56
2019-03-05T06:25:29.372Z,95380.34
2019-03-05T06:28:17.374Z,95387.31
2019-03-05T06:31:05.218Z,95402.45
2019-03-05T06:33:53.226Z,95391.08
2019-03-05T06:36:57.532Z,95385.17
2019-03-05T06:39:45.158Z,95401.02
2019-03-05T06:42:33.614Z,95391.47
2019-03-05T06:45:21.708Z,95397.30
2019-03-05T06:48:09.706Z,95406.23
2019-03-05T06:50:57.527Z,95400.61
2019-03-05T06:53:45.358Z,95385.17
2019-03-05T06:56:33.199Z,95390.84
2019-03-05T06:59:21.252Z,95406.05
2019-03-05T07:02:09.229Z,95397.57
2019-03-05T07:04:57.599Z,95398.09
2019-03-05T07:07:45.823Z,95408.14
2019-03-05T07:10:52.348Z,95392.34
2019-03-05T07:13:40.318Z,95402.22
2019-03-05T07:16:58.101Z,95399.91
2019-03-05T07:20:28.090Z,95404.89
2019-03-05T07:23:57.500Z,95413.37
2019-03-05T07:26:45.630Z,95415.00
2019-03-05T07:29:33.247Z,95412.06
2019-03-05T07:32:21.341Z,95410.85
2019-03-05T07:35:10.983Z,95409.58
2019-03-05T07:37:58.851Z,95412.87
2019-03-05T07:40:46.833Z,95406.77
2019-03-05T07:43:36.803Z,95414.64
2019-03-05T07:46:24.395Z,95415.74
2019-03-05T07:49:12.716Z,95418.75
2019-03-05T07:52:01.012Z,95421.77
2019-03-05T07:54:48.902Z,95418.86
2019-03-05T07:57:37.053Z,95423.68
2019-03-05T08:00:25.207Z,95421.95
2019-03-05T08:03:13.455Z,95414.78
2019-03-05T08:06:01.597Z,95413.84
2019-03-05T08:09:25.854Z,95422.73
2019-03-05T08:12:34.811Z,95423.88
2019-03-05T08:16:01.709Z,95422.53
2019-03-05T08:18:40.399Z,95433.06
2019-03-05T08:21:28.240Z,95438.88
2019-03-05T08:24:16.088Z,95444.88
2019-03-05T08:27:04.077Z,95438.36
2019-03-05T08:29:52.423Z,95451.72
2019-03-05T08:32:40.220Z,95444.76
2019-03-05T08:35:28.167Z,95449.93
2019-03-05T08:38:16.284Z,95440.16
2019-03-05T08:41:04.907Z,95432.75
2019-03-05T08:43:54.365Z,95453.30
2019-03-05T08:46:42.865Z,95454.48
2019-03-05T08:49:31.174Z,95451.16
2019-03-05T08:52:19.357Z,95453.80
2019-03-05T08:55:08.255Z,95453.63
2019-03-05T08:57:56.270Z,95462.04
2019-03-05T09:00:44.324Z,95468.24
2019-03-05T09:03:32.512Z,95468.21
2019-03-05T09:06:20.566Z,95459.18
2019-03-05T09:09:10.970Z,95455.38
2019-03-05T09:11:58.886Z,95467.27
2019-03-05T09:14:47.643Z,95471.59
2019-03-05T09:17:35.544Z,95461.69
2019-03-05T09:20:23.857Z,95460.88
2019-03-05T09:23:11.625Z,95467.09
2019-03-05T09:25:59.638Z,95477.84
2019-03-05T09:28:47.515Z,95457.77
2019-03-05T09:31:35.815Z,95442.80
2019-03-05T09:34:23.805Z,95437.34
2019-03-05T09:37:11.653Z,95442.32
2019-03-05T09:39:59.801Z,95449.17
2019-03-05T09:42:48.364Z,95443.20
2019-03-05T09:45:36.722Z,95444.29
2019-03-05T09:48:25.205Z,95451.19
2019-03-05T09:51:13.323Z,95447.05
2019-03-05T09:54:01.202Z,95439.86
2019-03-05T09:56:49.319Z,95445.88
2019-03-05T09:59:37.299Z,95453.64
2019-03-05T10:02:25.266Z,95439.45
2019-03-05T10:05:14.050Z,95439.34
2019-03-05T10:08:02.340Z,95444.38
2019-03-05T10:10:50.891Z,95428.36
2019-03-05T10:13:38.662Z,95426.90
2019-03-05T10:16:26.538Z,95416.48
2019-03-05T10:19:14.606Z,95428.91
2019-03-05T10:22:02.345Z,95413.20
2019-03-05T10:24:50.444Z,95424.03
2019-03-05T10:27:38.745Z,95405.73
2019-03-05T10:30:28.430Z,95413.66
2019-03-05T10:33:17.589Z,95414.31
2019-03-05T10:36:05.603Z,95405.53
2019-03-05T10:38:57.306Z,95406.89
2019-03-05T10:41:43.446Z,95406.50
2019-03-05T10:44:31.524Z,95400.36
2019-03-05T10:47:20.212Z,95417.80
2019-03-05T10:50:15.353Z,95410.83
2019-03-05T10:52:59.955Z,95414.73
2019-03-05T10:55:48.071Z,95422.34
2019-03-05T10:58:36.225Z,95418.95
2019-03-05T11:01:24.302Z,95404.06
2019-03-05T11:04:12.320Z,95396.13
2019-03-05T11:07:00.365Z,95402.61
2019-03-05T11:09:48.700Z,95396.08
2019-03-05T11:12:37.168Z,95391.44
2019-03-05T11:15:26.282Z,95372.38
2019-03-05T11:18:17.101Z,95388.27
2019-03-05T11:21:05.906Z,95400.89
2019-03-05T11:23:54.017Z,95389.32
2019-03-05T11:26:42.293Z,95396.66
2019-03-05T11:29:29.881Z,95406.89
2019-03-05T11:32:17.825Z,95403.59
2019-03-05T11:35:06.448Z,95407.89
2019-03-05T11:37:54.637Z,95404.34
2019-03-05T11:40:42.881Z,95384.41
2019-03-05T11:43:31.196Z,95365.63
2019-03-05T11:46:19.134Z,95371.77
2019-03-05T11:49:07.261Z,95347.17
2019-03-05T11:51:55.440Z,95375.00
2019-03-05T11:54:43.369Z,95371.73
2019-03-05T11:57:31.635Z,95363.27
2019-03-05T12:00:28.429Z,95360.20
2019-03-05T12:03:16.257Z,95356.52
2019-03-05T12:06:04.473Z,95344.85
2019-03-05T12:08:52.421Z,95352.58
2019-03-05T12:11:40.489Z,95353.41
2019-03-05T12:14:28.573Z,95352.83
2019-03-05T12:17:16.645Z,95366.83
2019-03-05T12:20:05.342Z,95359.82
2019-03-05T12:22:53.242Z,95356.98
2019-03-05T12:25:41.585Z,95378.52
2019-03-05T12:28:29.727Z,95364.27
2019-03-05T12:31:17.741Z,95373.71
2019-03-05T12:34:06.199Z,95364.47
2019-03-05T12:36:54.020Z,95374.70
2019-03-05T12:39:41.731Z,95360.03
2019-03-05T12:42:29.666Z,95362.48
2019-03-05T12:45:18.078Z,95351.86
2019-03-05T12:48:06.393Z,95349.22
2019-03-05T12:50:54.540Z,95340.46
2019-03-05T12:53:42.135Z,95343.02
2019-03-05T12:56:30.503Z,95326.17
2019-03-05T12:59:18.200Z,95318.48
2019-03-05T13:02:06.477Z,95321.70
2019-03-05T13:04:54.116Z,95318.88
2019-03-05T13:07:42.353Z,95318.88
2019-03-05T13:10:34.935Z,95312.01
2019-03-05T13:13:19.950Z,95305.14
2019-03-05T13:16:07.987Z,95311.41
2019-03-05T13:18:58.249Z,95327.78
2019-03-05T13:21:48.471Z,95313.22
2019-03-05T13:24:35.096Z,95302.43
2019-03-05T13:27:23.780Z,95308.20
2019-03-05T13:30:17.368Z,95305.07
2019-03-05T13:33:05.350Z,95320.48
2019-03-05T13:35:53.534Z,95330.47
2019-03-05T13:38:45.110Z,95322.98
2019-03-05T13:41:31.291Z,95309.97
2019-03-05T13:44:33.726Z,95320.25
2019-03-05T13:47:21.463Z,95322.25
2019-03-05T13:50:49.401Z,95326.42
2019-03-05T13:54:09.485Z,95328.64
2019-03-05T13:57:43.593Z,95325.89
2019-03-05T14:00:31.503Z,95344.85
2019-03-05T14:03:55.410Z,95345.13
2019-03-05T14:06:59.958Z,95358.13
2019-03-05T14:09:46.173Z,95356.39
2019-03-05T14:12:33.977Z,95342.91
2019-03-05T14:15:21.823Z,95347.75
2019-03-05T14:18:09.551Z,95355.41
2019-03-05T14:20:57.693Z,95362.78
2019-03-05T14:23:45.768Z,95368.97
2019-03-05T14:26:34.110Z,95344.23
2019-03-05T14:29:22.279Z,95347.77
2019-03-05T14:32:11.079Z,95365.47
2019-03-05T14:35:01.925Z,95350.41
2019-03-05T14:37:50.076Z,95353.05
2019-03-05T14:40:38.342Z,95357.95
2019-03-05T14:43:26.634Z,95354.46
2019-03-05T14:46:14.474Z,95362.70
2019-03-05T14:49:02.563Z,95362.08
2019-03-05T14:51:51.071Z,95360.69
2019-03-05T14:54:38.772Z,95359.51
2019-03-05T14:57:26.633Z,95369.73
2019-03-05T15:00:16.147Z,95360.28
2019-03-05T15:03:04.310Z,95360.56
2019-03-05T15:05:52.424Z,95368.24
2019-03-05T15:08:40.325Z,95362.17
2019-03-05T15:11:28.555Z,95374.39
2019-03-05T15:14:16.410Z,95369.51
2019-03-05T15:17:04.431Z,95360.52
2019-03-05T15:19:52.506Z,95378.74
2019-03-05T15:22:40.366Z,95373.45
2019-03-05T15:25:28.735Z,95393.05
2019-03-05T15:28:16.770Z,95377.39
2019-03-05T15:31:08.034Z,95370.23
2019-03-05T15:33:56.236Z,95365.67
2019-03-05T15:36:44.208Z,95364.00
2019-03-05T15:39:32.428Z,95358.30
2019-03-05T15:42:21.350Z,95375.22
2019-03-05T15:45:11.349Z,95377.70
2019-03-05T15:47:59.173Z,95379.02
2019-03-05T15:50:47.227Z,95374.95
2019-03-05T15:53:35.252Z,95389.52
2019-03-05T15:56:22.981Z,95379.81
2019-03-05T15:59:11.159Z,95365.53
2019-03-05T16:01:59.124Z,95383.30
2019-03-05T16:04:47.479Z,95381.40
2019-03-05T16:07:35.494Z,95378.81
2019-03-05T16:10:23.177Z,95387.10
2019-03-05T16:13:11.345Z,95383.44
2019-03-05T16:15:59.490Z,95392.25
2019-03-05T16:18:47.483Z,95391.58
2019-03-05T16:21:37.104Z,95390.90
2019-03-05T16:24:25.485Z,95389.11
2019-03-05T16:27:14.474Z,95384.14
2019-03-05T16:30:03.122Z,95403.26
2019-03-05T16:32:59.972Z,95401.77
2019-03-05T16:35:59.512Z,95402.48
2019-03-05T16:39:18.783Z,95398.22
2019-03-05T16:42:21.425Z,95398.86
2019-03-05T16:45:41.457Z,95399.58
2019-03-05T16:48:51.367Z,95394.27
2019-03-05T16:52:07.281Z,95396.64
2019-03-05T16:55:17.150Z,95404.22
2019-03-05T16:58:17.245Z,95409.97
2019-03-05T17:01:33.044Z,95404.10
2019-03-05T17:04:31.549Z,95423.71
2019-03-05T17:07:41.429Z,95417.61
2019-03-05T17:10:57.357Z,95437.91
2019-03-05T17:13:45.274Z,95439.47
2019-03-05T17:16:34.959Z,95455.72
2019-03-05T17:19:23.211Z,95449.38
2019-03-05T17:22:11.287Z,95454.02
2019-03-05T17:24:59.593Z,95459.55
2019-03-05T17:27:47.298Z,95461.02
2019-03-05T17:30:35.498Z,95463.73
2019-03-05T17:33:23.237Z,95464.97
2019-03-05T17:36:11.369Z,95470.42
2019-03-05T17:38:59.563Z,95471.98
2019-03-05T17:41:47.939Z,95473.80
2019-03-05T17:44:35.942Z,95469.69
2019-03-05T17:47:24.318Z,95475.34
2019-03-05T17:50:12.403Z,95477.63
2019-03-05T17:53:00.175Z,95488.94
2019-03-05T17:55:50.335Z,95486.77
2019-03-05T17:58:38.553Z,95488.66
2019-03-05T18:01:26.599Z,95489.13
2019-03-05T18:04:14.503Z,95494.78
2019-03-05T18:07:02.466Z,95494.31
2019-03-05T18:09:50.606Z,95498.95
2019-03-05T18:12:39.032Z,95491.14
2019-03-05T18:15:28.960Z,95497.30
2019-03-05T18:18:17.277Z,95493.84
2019-03-05T18:21:05.910Z,95497.02
2019-03-05T18:23:54.259Z,95496.56
2019-03-05T18:26:42.175Z,95491.83
2019-03-05T18:29:30.415Z,95496.36
2019-03-05T18:32:18.684Z,95502.77
2019-03-05T18:35:06.979Z,95496.78
2019-03-05T18:37:55.325Z,95512.33
2019-03-05T18:40:43.500Z,95506.36
2019-03-05T18:43:31.425Z,95517.95
2019-03-05T18:46:19.634Z,95519.26
2019-03-05T18:49:07.709Z,95516.91
2019-03-05T18:51:55.597Z,95516.78
2019-03-05T18:54:43.613Z,95520.55
2019-03-05T18:57:31.499Z,95531.65
2019-03-05T19:00:21.946Z,95529.79
2019-03-05T19:03:10.108Z,95533.61
2019-03-05T19:05:58.502Z,95533.41
2019-03-05T19:08:46.311Z,95530.47
2019-03-05T19:11:34.500Z,95531.59
2019-03-05T19:14:22.863Z,95537.52
2019-03-05T19:17:11.159Z,95539.30
2019-03-05T19:19:59.645Z,95538.89
2019-03-05T19:22:47.925Z,95541.44
2019-03-05T19:25:36.081Z,95535.94
2019-03-05T19:28:24.127Z,95537.81
2019-03-05T19:31:12.393Z,95550.23
2019-03-05T19:34:00.367Z,95549.06
2019-03-05T19:36:48.380Z,95543.70
2019-03-05T19:39:36.707Z,95549.03
2019-03-05T19:42:24.575Z,95544.91
2019-03-05T19:45:13.472Z,95548.50
2019-03-05T19:48:01.471Z,95552.52
2019-03-05T19:50:49.508Z,95555.55
2019-03-05T19:53:37.166Z,95545.52
2019-03-05T19:56:25.155Z,95547.67
2019-03-05T19:59:13.299Z,95548.35
2019-03-05T20:02:01.892Z,95551.95
2019-03-05T20:04:49.997Z,95554.28
2019-03-05T20:07:38.335Z,95554.05
2019-03-05T20:10:26.399Z,95547.59
2019-03-05T20:13:14.479Z,95559.89
2019-03-05T20:16:03.133Z,95562.22
2019-03-05T20:18:51.103Z,95556.71
2019-03-05T20:21:39.098Z,95557.80
2019-03-05T20:24:26.982Z,95558.61
2019-03-05T20:27:16.386Z,95553.75
2019-03-05T20:30:04.678Z,95556.84
2019-03-05T20:32:52.668Z,95560.80
2019-03-05T20:35:40.688Z,95557.21
2019-03-05T20:38:28.695Z,95557.48
2019-03-05T20:41:18.506Z,95548.33
2019-03-05T20:44:09.785Z,95550.05
2019-03-05T20:47:00.691Z,95550.80
2019-03-05T20:49:50.929Z,95553.80
2019-03-05T20:52:39.062Z,95553.27
2019-03-05T20:55:27.218Z,95553.39
2019-03-05T20:58:15.246Z,95555.64
2019-03-05T21:01:04.809Z,95558.06
2019-03-05T21:03:52.474Z,95551.52
2019-03-05T21:06:41.253Z,95553.66
2019-03-05T21:09:29.212Z,95549.44
2019-03-05T21:12:16.990Z,95554.98
2019-03-05T21:15:05.338Z,95553.20
2019-03-05T21:17:54.098Z,95555.22
2019-03-05T21:20:42.310Z,95565.72
2019-03-05T21:23:30.033Z,95557.63
2019-03-05T21:26:17.989Z,95562.63
2019-03-05T21:29:06.248Z,95567.64
2019-03-05T21:31:54.358Z,95559.35
2019-03-05T21:34:42.868Z,95564.05
2019-03-05T21:37:30.666Z,95556.13
2019-03-05T21:40:20.583Z,95560.78
2019-03-05T21:43:08.752Z,95565.12
2019-03-05T21:45:59.450Z,95556.27
2019-03-05T21:48:47.746Z,95560.83
2019-03-05T21:51:35.448Z,95557.16
2019-03-05T21:54:23.468Z,95551.61
2019-03-05T21:57:11.151Z,95554.95
2019-03-05T21:59:59.407Z,95551.12
2019-03-05T22:02:47.622Z,95553.44
2019-03-05T22:05:35.727Z,95551.36
2019-03-05T22:08:23.897Z,95551.36
2019-03-05T22:11:11.594Z,95543.89
2019-03-05T22:13:59.535Z,95540.01
2019-03-05T22:16:47.429Z,95527.66
2019-03-05T22:19:35.401Z,95524.25
2019-03-05T22:22:23.718Z,95531.13
2019-03-05T22:25:13.100Z,95530.57
2019-03-05T22:28:01.240Z,95522.64
2019-03-05T22:30:49.177Z,95532.45
2019-03-05T22:33:37.406Z,95520.13
2019-03-05T22:36:25.790Z,95525.84
2019-03-05T22:39:14.041Z,95528.95
2019-03-05T22:42:01.909Z,95530.50
2019-03-05T22:44:49.715Z,95524.75
2019-03-05T22:47:37.873Z,95525.39
2019-03-05T22:50:26.093Z,95530.38
2019-03-05T22:53:14.260Z,95532.16
2019-03-05T22:56:02.345Z,95532.27
2019-03-05T22:58:50.795Z,95529.47
2019-03-05T23:01:43.452Z,95527.86
2019-03-05T23:04:39.810Z,95532.06
2019-03-05T23:07:27.736Z,95533.67
2019-03-05T23:10:16.818Z,95517.61
2019-03-05T23:13:05.322Z,95513.92
2019-03-05T23:15:53.326Z,95510.77
2019-03-05T23:18:41.390Z,95517.59
2019-03-05T23:21:29.183Z,95511.63
2019-03-05T23:24:17.092Z,95513.22
2019-03-05T23:27:05.221Z,95512.83
2019-03-05T23:29:53.105Z,95513.17
2019-03-05T23:32:41.533Z,95505.02
2019-03-05T23:35:29.549Z,95507.33
2019-03-05T23:38:17.775Z,95504.50
2019-03-05T23:41:08.389Z,95504.40
2019-03-05T23:43:55.974Z,95504.65
2019-03-05T23:46:44.119Z,95498.91
2019-03-05T23:49:32.245Z,95503.29
2019-03-05T23:52:20.516Z,95500.60
2019-03-05T23:55:08.674Z,95486.80
2019-03-05T23:57:56.638Z,95494.87
